Data for 05/14/2014

Time Sea-Level Adjusted Pressure Absolute Pressure Temperature Relative Humidity Dew Point   
(mb) (inHg) (mb) (inHg) (C) (F) (%) (C) (F)
00:05 1029 30.39 858 25.34 5.5 41.8 48 -4.7 23.6
00:10 1029 30.39 858 25.34 5.2 41.4 49 -4.6 23.7
00:15 1029 30.39 858 25.34 5 41 50 -4.6 23.7
00:20 1029 30.39 858 25.34 4.8 40.6 51 -4.5 23.9
00:25 1029 30.39 858 25.34 4.7 40.5 51 -4.5 23.8
00:30 1029 30.39 858 25.34 4.8 40.7 51 -4.5 23.9
00:35 1029 30.39 858 25.34 4.8 40.6 51 -4.5 23.9
00:40 1029 30.39 858 25.34 4.6 40.3 52 -4.4 24
00:45 1029 30.39 858 25.34 4.6 40.2 52 -4.6 23.8
00:50 1029 30.39 858 25.34 4.6 40.3 51 -4.8 23.4
00:55 1029 30.39 858 25.34 4.8 40.7 50 -4.8 23.4
01:00 1029 30.39 858 25.34 4.9 40.7 50 -4.7 23.5
01:05 1029 30.39 858 25.34 4.7 40.4 52 -4.4 24.1
01:10 1029 30.39 858 25.34 4.3 39.7 54 -4.3 24.2
01:15 1029 30.39 858 25.34 4.1 39.4 53 -4.6 23.8
01:20 1029 30.39 858 25.34 4.4 39.9 51 -4.8 23.3
01:25 1029 30.39 858 25.34 4.5 40.1 51 -4.7 23.5
01:30 1029 30.39 858 25.34 4.6 40.2 50 -4.8 23.3
01:35 1029 30.39 858 25.34 4.7 40.4 50 -4.8 23.4
01:40 1029 30.39 858 25.34 4.5 40.1 52 -4.4 24.1
01:45 1029 30.39 858 25.34 4.2 39.6 52 -4.7 23.5
01:50 1029 30.39 858 25.34 4.7 40.4 49 -5.1 22.8
01:55 1029 30.39 858 25.34 4.7 40.4 52 -4.3 24.2
02:00 1029 30.39 858 25.34 4.2 39.5 52 -4.8 23.4
02:05 1029 30.39 858 25.34 4.3 39.7 52 -4.8 23.4
02:10 1029 30.39 858 25.34 4.1 39.4 54 -4.4 24
02:15 1029 30.39 858 25.34 3.8 38.8 55 -4.4 24.1
02:20 1029 30.39 858 25.34 3.5 38.4 55 -4.6 23.7
02:25 1029 30.39 858 25.34 3.6 38.4 53 -5 22.9
02:30 1029 30.39 858 25.34 4 39.3 52 -5.1 22.9
02:35 1029 30.39 858 25.34 4.2 39.5 52 -4.8 23.4
02:40 1029 30.39 858 25.34 4 39.3 52 -4.9 23.2
02:45 1029 30.39 858 25.34 4.2 39.6 51 -4.9 23.1
02:50 1029 30.39 858 25.34 4.1 39.4 53 -4.6 23.6
02:55 1029 30.39 858 25.34 3.7 38.6 55 -4.5 23.9
03:00 1029 30.39 858 25.34 3.5 38.2 55 -4.8 23.4
03:05 1029 30.39 858 25.34 3.3 38 56 -4.7 23.5
03:10 1029 30.39 858 25.34 3.3 37.9 57 -4.4 24
03:15 1029 30.39 858 25.34 3.2 37.7 56 -4.7 23.6
03:20 1029 30.39 858 25.34 3.2 37.8 56 -4.8 23.4
03:25 1029 30.39 858 25.34 3.3 38 56 -4.6 23.8
03:30 1029 30.39 858 25.34 3.2 37.7 58 -4.3 24.2
03:35 1029 30.39 858 25.34 2.8 37.1 60 -4.3 24.3
03:40 1029 30.39 858 25.34 2.7 36.9 60 -4.4 24.1
03:45 1029 30.39 858 25.34 2.8 37 60 -4.3 24.2
03:50 1029 30.39 858 25.34 2.7 36.8 60 -4.4 24.1
03:55 1029 30.39 858 25.34 2.6 36.7 59 -4.5 23.8
04:00 1029 30.39 858 25.34 2.8 37 59 -4.5 23.8
04:05 1029 30.39 858 25.34 2.7 36.9 59 -4.6 23.7
04:10 1029 30.39 858 25.34 2.8 37.1 57 -4.9 23.2
04:15 1029 30.39 858 25.34 3.3 37.9 55 -5 23
04:20 1029 30.39 858 25.34 3.8 38.8 52 -5.2 22.6
04:25 1029 30.39 858 25.34 4.1 39.5 52 -4.9 23.1
04:30 1029 30.39 858 25.34 3.8 38.8 55 -4.5 23.9
04:35 1029 30.39 858 25.34 3.3 37.9 56 -4.6 23.7
04:40 1029 30.39 858 25.34 3.1 37.5 56 -4.8 23.3
04:45 1029 30.39 859 25.37 2.9 37.3 56 -4.9 23.1
04:50 1029 30.39 859 25.37 3.3 38 54 -5.1 22.8
04:55 1029 30.39 859 25.37 3.7 38.7 53 -5 23
05:00 1029 30.39 859 25.37 3.7 38.7 53 -4.9 23.2
05:05 1029 30.39 859 25.37 3.6 38.5 54 -5 23
05:10 1029 30.39 859 25.37 3.6 38.4 53 -5 23
05:15 1030 30.42 859 25.37 3.5 38.4 54 -4.9 23.2
05:20 1029 30.39 859 25.37 3.4 38.2 55 -4.8 23.4
05:25 1029 30.39 859 25.37 3.2 37.7 57 -4.6 23.8
05:30 1029 30.39 859 25.37 2.7 36.8 57 -5 23
05:35 1029 30.39 859 25.37 3.2 37.8 55 -5.1 22.9
05:40 1029 30.39 859 25.37 3.2 37.7 56 -4.7 23.5
05:45 1029 30.39 859 25.37 2.9 37.2 57 -4.8 23.4
05:50 1029 30.39 859 25.37 3 37.4 57 -4.6 23.6
05:55 1029 30.39 859 25.37 2.9 37.2 58 -4.6 23.8
06:00 1029 30.39 859 25.37 3 37.4 58 -4.5 23.9
06:05 1029 30.39 859 25.37 3.2 37.8 57 -4.6 23.7
06:10 1030 30.42 859 25.37 3.5 38.4 55 -4.6 23.7
06:15 1030 30.42 859 25.37 3.6 38.5 56 -4.3 24.2
06:20 1030 30.42 859 25.37 3.6 38.5 57 -4.1 24.6
06:25 1030 30.42 859 25.37 3.7 38.7 57 -4 24.9
06:30 1030 30.42 859 25.37 3.8 38.9 57 -3.8 25.1
06:35 1030 30.42 859 25.37 4 39.2 55 -4.2 24.5
06:40 1030 30.42 859 25.37 4.2 39.6 54 -4.2 24.5
06:45 1029 30.39 859 25.37 4.5 40 54 -4.1 24.6
06:50 1030 30.42 859 25.37 4.7 40.4 53 -4.1 24.6
06:55 1029 30.39 859 25.37 5.3 41.5 52 -3.9 25.1
07:00 1029 30.39 859 25.37 5.7 42.2 50 -3.8 25.1
07:05 1030 30.42 859 25.37 5.9 42.7 50 -3.8 25.1
07:10 1030 30.42 859 25.37 6.5 43.8 48 -3.8 25.2
07:15 1030 30.42 859 25.37 6.8 44.3 48 -3.5 25.7
07:20 1030 30.42 859 25.37 6.7 44 47 -3.8 25.2
07:25 1030 30.42 859 25.37 6.9 44.5 45 -4.1 24.6
07:30 1030 30.42 859 25.37 7.5 45.5 44 -4 24.8
07:35 1030 30.42 859 25.37 8 46.4 44 -3.5 25.8
07:40 1030 30.42 859 25.37 8.2 46.7 42 -4.1 24.7
07:45 1030 30.42 859 25.37 8.6 47.5 39 -4.7 23.6
07:50 1030 30.42 859 25.37 9.6 49.2 40 -3.3 26
07:55 1029 30.39 859 25.37 9.6 49.3 41 -3.1 26.4
08:00 1029 30.39 859 25.37 10 49.9 33 -5.4 22.2
08:05 1030 30.42 859 25.37 10.2 50.4 33 -5.2 22.6
08:10 1029 30.39 859 25.37 10.7 51.2 34 -4.7 23.6
08:15 1029 30.39 859 25.37 10.5 50.9 34 -4.8 23.3
08:20 1029 30.39 859 25.37 10.2 50.4 36 -4.1 24.7
08:25 1030 30.42 859 25.37 10.4 50.7 33 -5.2 22.7
08:30 1030 30.42 859 25.37 11.1 52 33 -4.7 23.5
08:35 1030 30.42 859 25.37 11.6 52.9 31 -4.8 23.3
08:40 1029 30.39 859 25.37 12 53.5 30 -5.2 22.6
08:45 1029 30.39 859 25.37 12 53.7 30 -5.1 22.8
08:50 1029 30.39 859 25.37 11.9 53.4 31 -4.8 23.3
08:55 1029 30.39 859 25.37 12.4 54.2 29 -5.4 22.4
09:00 1029 30.39 859 25.37 12.3 54.2 29 -5.2 22.7
09:05 1029 30.39 859 25.37 12.8 55 27 -5.5 22.1
09:10 1029 30.39 859 25.37 13.6 56.4 28 -4.7 23.6
09:15 1029 30.39 859 25.37 12.7 54.9 30 -4.4 24
09:20 1029 30.39 858 25.34 12.7 54.8 27 -6 21.3
09:25 1029 30.39 858 25.34 12.8 55 27 -5.6 21.9
09:30 1029 30.39 858 25.34 12.6 54.7 25 -6.9 19.6
09:35 1029 30.39 858 25.34 13.5 56.3 25 -6.1 21
09:40 1029 30.39 858 25.34 14.7 58.4 24 -5.7 21.7
09:45 1029 30.39 858 25.34 14.3 57.7 25 -5.6 21.9
09:50 1029 30.39 858 25.34 14.5 58 24 -5.9 21.4
09:55 1029 30.39 858 25.34 14 57.2 25 -5.8 21.5
10:00 1029 30.39 858 25.34 14.1 57.5 23 -6.6 20.2
10:05 1029 30.39 858 25.34 14.7 58.4 23 -6.1 21.1
10:10 1029 30.39 858 25.34 13.6 56.4 24 -6.4 20.5
10:15 1029 30.39 858 25.34 14.7 58.5 22 -6.7 20
10:20 1029 30.39 858 25.34 15.4 59.8 21 -6.4 20.4
10:25 1029 30.39 858 25.34 15.1 59.1 23 -5.6 21.9
10:30 1029 30.39 858 25.34 14.7 58.4 23 -6.2 20.8
10:35 1029 30.39 858 25.34 15 58.9 21 -6.9 19.7
10:40 1029 30.39 858 25.34 15.2 59.4 22 -6.2 20.8
10:45 1029 30.39 858 25.34 15.6 60.2 23 -5.5 22.1
10:50 1029 30.39 858 25.34 15.8 60.5 22 -5.6 22
10:55 1029 30.39 858 25.34 15.8 60.4 22 -5.8 21.6
11:00 1029 30.39 858 25.34 15.4 59.7 23 -5.5 22.2
11:05 1029 30.39 858 25.34 15.5 60 23 -5.7 21.7
11:10 1029 30.39 858 25.34 15.8 60.4 21 -6.6 20.2
11:15 1029 30.39 858 25.34 15.9 60.5 21 -6.2 20.9
11:20 1029 30.39 858 25.34 15.8 60.5 21 -6.6 20
11:25 1029 30.39 858 25.34 15.9 60.6 22 -5.8 21.6
11:30 1029 30.39 858 25.34 15.8 60.4 22 -6.1 21
11:35 1029 30.39 858 25.34 16.1 61.1 21 -5.8 21.5
11:40 1028 30.36 858 25.34 16.6 61.9 21 -5.8 21.6
11:45 1028 30.36 858 25.34 16.9 62.5 22 -5.1 22.9
11:50 1028 30.36 858 25.34 16.8 62.2 21 -5.7 21.8
11:55 1028 30.36 858 25.34 17 62.7 20 -6.3 20.7
12:00 1028 30.36 858 25.34 17 62.6 20 -6.1 21
12:05 1028 30.36 858 25.34 16.9 62.5 21 -5.4 22.2
12:10 1028 30.36 857 25.31 16.8 62.2 18 -7.3 18.9
12:15 1028 30.36 857 25.31 16.9 62.5 19 -6.9 19.6
12:20 1028 30.36 857 25.31 16.8 62.2 17 -8.7 16.4
12:25 1028 30.36 857 25.31 16.9 62.5 17 -8.1 17.3
12:30 1028 30.36 857 25.31 17.1 62.8 17 -7.8 17.9
12:35 1028 30.36 857 25.31 17.6 63.7 18 -7 19.4
12:40 1028 30.36 857 25.31 17.2 63 17 -8.3 17
12:45 1028 30.36 857 25.31 17.1 62.7 18 -7.4 18.8
12:50 1028 30.36 857 25.31 16.9 62.4 19 -6.5 20.2
12:55 1028 30.36 857 25.31 17.5 63.5 18 -7.3 18.9
13:00 1028 30.36 857 25.31 16.9 62.3 19 -7.1 19.2
13:05 1028 30.36 857 25.31 17.3 63.1 18 -7.5 18.5
13:10 1028 30.36 857 25.31 17.8 64.1 18 -6.9 19.6
13:15 1028 30.36 857 25.31 16.9 62.5 19 -6.4 20.4
13:20 1028 30.36 857 25.31 16.2 61.1 19 -7.1 19.2
13:25 1028 30.36 857 25.31 16.7 62 19 -7.1 19.2
13:30 1028 30.36 857 25.31 16.3 61.3 19 -7 19.4
13:35 1028 30.36 857 25.31 16.8 62.3 19 -7 19.4
13:40 1027 30.33 857 25.31 17.1 62.7 19 -6.4 20.5
13:45 1027 30.33 857 25.31 17.2 63 19 -6.7 19.9
13:50 1027 30.33 857 25.31 17.6 63.7 19 -6 21.2
13:55 1027 30.33 857 25.31 18 64.5 19 -5.6 22
14:00 1027 30.33 857 25.31 17.8 64.1 19 -6 21.2
14:05 1027 30.33 856 25.28 17.4 63.3 19 -6.2 20.9
14:10 1027 30.33 856 25.28 17.7 63.9 19 -6.4 20.4
14:15 1027 30.33 856 25.28 18.4 65.1 18 -6.2 20.8
14:20 1027 30.33 856 25.28 18.1 64.5 18 -6.2 20.8
14:25 1027 30.33 856 25.28 18.6 65.5 18 -6 21.2
14:30 1027 30.33 856 25.28 18.2 64.8 19 -5.6 21.9
14:35 1027 30.33 856 25.28 18.4 65.2 19 -5.7 21.8
14:40 1027 30.33 856 25.28 18.4 65 18 -6.1 21.1
14:45 1027 30.33 856 25.28 17.6 63.7 20 -5.4 22.2
14:50 1027 30.33 856 25.28 16.4 61.5 22 -5.4 22.3
14:55 1027 30.33 856 25.28 16.5 61.6 21 -5.6 22
15:00 1027 30.33 856 25.28 16.6 61.8 21 -5.8 21.5
15:05 1027 30.33 856 25.28 17.1 62.7 20 -5.9 21.4
15:10 1026 30.3 856 25.28 18.2 64.7 20 -5.3 22.4
15:15 1026 30.3 856 25.28 18.5 65.4 20 -4.9 23.2
15:20 1026 30.3 856 25.28 18.3 64.9 20 -4.9 23.2
15:25 1026 30.3 856 25.28 17.8 64 19 -6.2 20.9
15:30 1026 30.3 856 25.28 18 64.5 20 -5.2 22.6
15:35 1026 30.3 856 25.28 18.1 64.6 20 -5.1 22.8
15:40 1026 30.3 856 25.28 18.6 65.5 19 -5.3 22.5
15:45 1026 30.3 855 25.25 19.1 66.4 18 -5.6 22
15:50 1026 30.3 855 25.25 19.3 66.7 19 -5.1 22.8
15:55 1026 30.3 855 25.25 18.7 65.7 19 -5 23
16:00 1026 30.3 855 25.25 18.1 64.5 20 -4.8 23.3
16:05 1026 30.3 855 25.25 17.4 63.3 20 -6 21.2
16:10 1026 30.3 855 25.25 18.2 64.7 19 -5.5 22.1
16:15 1026 30.3 855 25.25 19.1 66.3 19 -5.1 22.9
16:20 1026 30.3 855 25.25 18.3 64.9 21 -4.6 23.8
16:25 1026 30.3 855 25.25 17.3 63.1 21 -5.4 22.3
16:30 1026 30.3 855 25.25 17 62.5 21 -5.4 22.2
16:35 1026 30.3 855 25.25 17.7 63.9 20 -5.1 22.8
16:40 1026 30.3 855 25.25 18.2 64.7 20 -4.9 23.2
16:45 1026 30.3 855 25.25 17.8 64 21 -4.6 23.7
16:50 1026 30.3 855 25.25 17.5 63.4 21 -4.7 23.5
16:55 1026 30.3 855 25.25 17.2 62.9 21 -5.2 22.7
17:00 1026 30.3 855 25.25 17.6 63.6 21 -5.2 22.6
17:05 1026 30.3 855 25.25 17.9 64.2 21 -4.7 23.6
17:10 1026 30.3 855 25.25 18 64.4 21 -4.6 23.6
17:15 1026 30.3 855 25.25 17.9 64.2 23 -3.5 25.7
17:20 1026 30.3 855 25.25 17.8 64 21 -4.8 23.3
17:25 1026 30.3 855 25.25 17.6 63.7 21 -4.7 23.6
17:30 1026 30.3 855 25.25 17.6 63.7 22 -4.6 23.8
17:35 1026 30.3 855 25.25 17.5 63.5 21 -4.8 23.3
17:40 1026 30.3 855 25.25 17.4 63.3 21 -5 22.9
17:45 1026 30.3 855 25.25 17.5 63.5 21 -4.8 23.4
17:50 1026 30.3 855 25.25 17.2 62.9 21 -4.9 23.1
17:55 1025 30.27 855 25.25 17.1 62.7 21 -5 22.9
18:00 1025 30.27 855 25.25 17.1 62.8 22 -4.7 23.5
18:05 1025 30.27 855 25.25 17 62.7 22 -4.6 23.6
18:10 1025 30.27 855 25.25 17 62.5 23 -4.5 24
18:15 1025 30.27 855 25.25 16.9 62.5 23 -4 24.9
18:20 1025 30.27 855 25.25 16.9 62.4 23 -4.4 24.1
18:25 1025 30.27 855 25.25 16.9 62.3 23 -4.2 24.4
18:30 1025 30.27 854 25.22 16.8 62.3 23 -4.4 24.1
18:35 1025 30.27 854 25.22 16.7 62.1 23 -4.3 24.3
18:40 1025 30.27 854 25.22 16.7 62 23 -4.3 24.3
18:45 1025 30.27 854 25.22 16.5 61.7 24 -4 24.7
18:50 1025 30.27 854 25.22 16.4 61.6 24 -4 24.8
18:55 1025 30.27 854 25.22 16.4 61.5 24 -4.1 24.7
19:00 1025 30.27 854 25.22 16.3 61.3 24 -4.3 24.2
19:05 1025 30.27 854 25.22 16.2 61.2 24 -4.4 24.1
19:10 1025 30.27 854 25.22 16.1 61 24 -4.1 24.6
19:15 1025 30.27 854 25.22 16 60.8 25 -4 24.7
19:20 1025 30.27 854 25.22 16 60.7 25 -3.7 25.3
19:25 1025 30.27 854 25.22 15.8 60.5 26 -3.7 25.4
19:30 1025 30.27 854 25.22 15.7 60.3 26 -3.6 25.6
19:35 1025 30.27 854 25.22 15.6 60.1 27 -3.2 26.3
19:40 1025 30.27 854 25.22 15.5 59.9 27 -3.2 26.2
19:45 1025 30.27 854 25.22 15.4 59.7 28 -3.1 26.4
19:50 1025 30.27 854 25.22 15.2 59.3 32 -1.3 29.6
19:55 1025 30.27 854 25.22 14.8 58.6 32 -1.8 28.8
20:00 1025 30.27 854 25.22 14.4 58 37 0.2 32.3
20:05 1025 30.27 854 25.22 13.8 56.9 41 0.8 33.4
20:10 1025 30.27 854 25.22 13.6 56.4 39 0.1 32.1
20:15 1025 30.27 854 25.22 13.5 56.3 39 0 32.1
20:20 1025 30.27 855 25.25 13.3 56 39 -0.1 31.8
20:25 1025 30.27 855 25.25 13.1 55.6 40 -0.1 31.9
20:30 1025 30.27 855 25.25 13 55.4 39 -0.4 31.2
20:35 1025 30.27 855 25.25 12.8 55.1 41 -0.2 31.7
20:40 1026 30.3 855 25.25 12.5 54.5 41 -0.3 31.5
20:45 1026 30.3 855 25.25 12.4 54.3 40 -0.9 30.4
20:50 1026 30.3 855 25.25 12.4 54.2 41 -0.3 31.4
20:55 1026 30.3 855 25.25 12.1 53.8 44 0.2 32.3
21:00 1026 30.3 855 25.25 11.6 52.9 45 0.3 32.5
21:05 1026 30.3 855 25.25 11.4 52.5 44 -0.4 31.3
21:10 1026 30.3 855 25.25 11.3 52.3 44 -0.5 31.2
21:15 1026 30.3 855 25.25 11.2 52.2 43 -0.8 30.6
21:20 1026 30.3 855 25.25 11.3 52.3 42 -1.1 29.9
21:25 1026 30.3 855 25.25 11.3 52.3 43 -0.9 30.4
21:30 1026 30.3 855 25.25 11.3 52.3 43 -0.8 30.5
21:35 1026 30.3 855 25.25 11.1 52 43 -0.9 30.4
21:40 1026 30.3 855 25.25 11 51.7 44 -0.8 30.6
21:45 1026 30.3 855 25.25 10.9 51.5 44 -0.8 30.5
21:50 1026 30.3 855 25.25 10.8 51.5 45 -0.7 30.8
21:55 1026 30.3 855 25.25 10.7 51.3 44 -0.9 30.4
22:00 1026 30.3 855 25.25 10.7 51.3 44 -0.9 30.4
22:05 1026 30.3 855 25.25 10.7 51.2 44 -1 30.3
22:10 1026 30.3 855 25.25 10.7 51.2 44 -1 30.2
22:15 1026 30.3 855 25.25 10.7 51.2 44 -1.1 30
22:20 1026 30.3 855 25.25 10.7 51.2 44 -1.1 30
22:25 1026 30.3 855 25.25 10.6 51 44 -1 30.1
22:30 1026 30.3 855 25.25 10.4 50.8 46 -0.7 30.7
22:35 1026 30.3 855 25.25 10.3 50.5 46 -0.8 30.5
22:40 1026 30.3 855 25.25 10.2 50.4 46 -0.9 30.5
22:45 1026 30.3 855 25.25 10.1 50.2 47 -0.6 31
22:50 1026 30.3 855 25.25 10 50 48 -0.5 31.1
22:55 1026 30.3 855 25.25 10 50 47 -0.8 30.6
23:00 1026 30.3 855 25.25 10.1 50.1 46 -0.9 30.4
23:05 1026 30.3 855 25.25 10 50 46 -1.1 30
23:10 1026 30.3 855 25.25 9.9 49.9 46 -1 30.3
23:15 1026 30.3 855 25.25 9.7 49.5 49 -0.5 31.1
23:20 1026 30.3 855 25.25 9.7 49.4 47 -1.1 30
23:25 1026 30.3 855 25.25 9.7 49.5 48 -0.8 30.5
23:30 1025 30.27 855 25.25 9.4 48.9 50 -0.5 31.1
23:35 1025 30.27 855 25.25 9 48.2 51 -0.5 31
23:40 1025 30.27 855 25.25 8.8 47.9 51 -0.8 30.6
23:45 1025 30.27 855 25.25 8.9 48 49 -1.3 29.7
23:50 1025 30.27 855 25.25 9.1 48.4 48 -1.3 29.7
23:55 1025 30.27 855 25.25 9.1 48.4 48 -1.4 29.5
24:00 1025 30.27 855 25.25 9.1 48.3 48 -1.2 29.9